Domov               UVHVVR             MKGP            O straneh              
ZDRAVSTVENO VARSTVO RASTLIN
  MREŽA AGROMET. POSTAJ
 ► PROGNOSTIČNA OBVESTILA
AGROMETEOROLOŠKI PODATKI -
ARSO
OBVLADOVANJE TVEGANJ ZARADI
NEUGODNIH VREMENSKIH RAZMER
  ► NARAVNE NESREČE
  ► SUŠA/MOČA
  ► NAMAKANJE
  ► ŽLED (gozdarstvo)
KARTOGRAFSKI PRIKAZI
SPLETNE POVEZAVE
PROJEKTI IN PUBLIKACIJE

AGROMETEOROLOŠKA MREŽA: VREMENSKE POSTAJE IN FENOLOŠKA OPAZOVANJA

Pregled podatkov za lokacijo Slom, meteorološka postaja 42786

Pregled senzorjev na lokaciji

ID Ime Zadnja
vrednost
Datum
zadnje
spremembe
Tip
senzorja
2126 Temperatura 2 m ( °C) 7,68 °C 21.10.2017 01:00 50YA
2127 Relativna vlaga 2 m (% RH) 97,62 % RH 21.10.2017 01:00 50YA
2128 Omočenost lista (U) 10 U 21.10.2017 01:00 A730WET
2129 Padavine 0.2 mm (mm) 0 mm 21.10.2017 00:59 Rain-O-Matic

Pregled podatkov zadnjih 24 ur

Zap.
št.
Datum in čas Slom
Omočenost
lista
Padavine
0.2
mm
Relativna
vlaga
2
m
Temperatura
2
m
0 21.10.2017 00:00 10 0 97,62 7,68
1 20.10.2017 23:30 10 0 96,96 8,04
2 20.10.2017 23:00 10 0 96,06 8,26
3 20.10.2017 22:30 10 0 95,33 8,78
4 20.10.2017 22:00 8 0 95,41 8,89
5 20.10.2017 21:30 3 0 95 8,79
6 20.10.2017 21:00 2 0 93,56 9,32
7 20.10.2017 20:30 1 0 92,18 9,7
8 20.10.2017 20:00 1 0 91,03 10,05
9 20.10.2017 19:30 0 0 88,73 10,76
10 20.10.2017 19:00 0 0 88,18 11,09
11 20.10.2017 18:30 0 0 87,01 11,36
12 20.10.2017 18:00 0 0 84,03 12,19
13 20.10.2017 17:30 0 0 77,65 13,82
14 20.10.2017 17:00 0 0 66,23 16,52
15 20.10.2017 16:30 0 0 57,34 18,7
16 20.10.2017 16:00 0 0 53,06 19,85
17 20.10.2017 15:30 0 0 50,55 20,48
18 20.10.2017 15:00 0 0 47,98 21,01
19 20.10.2017 14:30 0 0 47,36 21,05
20 20.10.2017 14:00 0 0 46,73 21,19
21 20.10.2017 13:30 0 0 45,44 21,02
22 20.10.2017 13:00 0 0 44,47 20,96
23 20.10.2017 12:30 0 0 45,69 20,67
24 20.10.2017 12:00 0 0 49,59 19,66
25 20.10.2017 11:30 0 0 53,77 18,7
26 20.10.2017 11:00 0 0 56,12 18,21
27 20.10.2017 10:30 0 0 58,88 17,28
28 20.10.2017 10:00 3 0 62,94 16,14
29 20.10.2017 09:30 10 0 69,93 14,51
30 20.10.2017 09:00 10 0 85,97 11,3
31 20.10.2017 08:30 10 0 99,53 8,12
32 20.10.2017 08:00 10 0 100 5,66
33 20.10.2017 07:30 10 0 100 3,55
34 20.10.2017 07:00 10 0 100 2,71
35 20.10.2017 06:30 10 0 100 2,72
36 20.10.2017 06:00 10 0 100 2,8
37 20.10.2017 05:30 10 0 100 3,04
38 20.10.2017 05:00 10 0 100 3,09
39 20.10.2017 04:30 10 0 100 3,41
40 20.10.2017 04:00 10 0 100 3,35
41 20.10.2017 03:30 10 0 100 3,37
42 20.10.2017 03:00 10 0 100 3,55
43 20.10.2017 02:30 10 0 99,98 3,79
44 20.10.2017 02:00 10 0 99,94 4,04
45 20.10.2017 01:30 10 0 99,81 4,1
© 2011 Ministrstvo za kmetijstvo, gozdarstvo in prehrano. Vse pravice pridržane.